Terminal Aerodrome Forecast
Issued by NWS

Home | Current Version | Previous Version | Text Only | Print | Product List | Glossary On
Versions: 1 2 3 4 5 6 7 8 9 10 11 12 13 14 15
000
FTUS45 KTFX 301731
TAFHLN
TAF
KHLN 301731Z 3018/3118 31006KT P6SM VCSH BKN100
     FM301900 29006KT P6SM VCSH BKN060
      TEMPO 3019/3023 VRB20G30KT 5SM TSRA OVC040CB
     FM310300 VRB04KT P6SM BKN250
     FM311400 VRB05KT P6SM VCSH SCT060 OVC090=

USA.gov is the U.S. government's official web portal to all federal, state and local government web resources and services.